Lennox, California
Current Conditions -  °F | °C
As of 3:53 PM on Thursday 27 Nov 2014 (Local Time) from KHHR Reporting Station
Clear Clear  
Wind Chill: 77°   Ceiling: Unl
Heat Index: 78°   Visibility: 10mi
Dew Point: 41°   Wind: 7mph
Humidity: 28%   Direction: 290°WNW
Pressure: 30"   Gusts: NA
Location:  33.94°N, 118.35°W
Report Text: KHHR 272353Z 29006KT 10SM CLR 25/05 A3000 RMK AO2 SLP158 T02500050 10322 20250 56008
Loading
Personal Weather Stations






























Interactive Weather Map New forecast layout! Learn more

10-Day Weather Forecast

Advertisements
Track Severe Weather on mobile